Pagina principale
Immagini satellite Previsioni 10 giorniClimaMeteomar Cicloni Fulmine AeroportiFAQ Bollettino Informazioni
Tempo : Europa Africa America settentrionale America meridionale Asia Australia-Oceania Altri
Lingue Contatto

Genova, Italia

Aeroporto di Genova-Sestri

latitudine: 44-25N, longitudine: 008-51E, altezza: 2 m


METAR: LIMJ 062350Z 03003KT 9999 FEW015 SCT020 26/21 Q1017
TAF: LIMJ 062300Z 0700/0724 VRB05KT CAVOK

Ora: 02:21 (00:21 UTC)

Osservazione

Il bollettino è stato emesso 31 minuti fa, alle 23:50 UTC
Vento 3 kt da nord/nord-est
Temperature 26°C
Umidità 74%
Pressione 1017 hPa
Visibilità 10 km o più
Poco nuvoloso ad un'altezza di 1500 ft
Nubi sparse ad un'altezza di 2000 ft

Cambiare le unità

Previsione

Il bollettino è stato emesso 1 ora e 21 minuti fa, alle 23:00 UTC
Previsione valida dal 07 alle 00 UTC al 07 alle 24 UTC
Vento 5 kt da direzioni variabili
Visibilità 10 km o più
nessuna nube inferiore a 1500 m e nessun cumulonembo
Le informazioni contenute in questo sito formano oggetto di una clausola di esclusione di responsabilità
Tempo : Europa Africa America settentrionale America meridionale Asia Australia-Oceania Altri
Immagini satellite Previsioni 10 giorniClimaMeteomar Cicloni Fulmine AeroportiFAQ Lingue Contatto Bollettino Informazioni